sensor_id;sensor_type;location;lat;lon;timestamp;P1;durP1;ratioP1;P2;durP2;ratioP2
12593;SDS011;6362;50.208;9.182;2022-09-01T00:01:55;2.15;;;1.33;;
12593;SDS011;6362;50.208;9.182;2022-09-01T00:04:22;4.05;;;1.50;;
12593;SDS011;6362;50.208;9.182;2022-09-01T00:06:52;2.70;;;1.40;;
12593;SDS011;6362;50.208;9.182;2022-09-01T00:09:19;3.97;;;1.50;;
12593;SDS011;6362;50.208;9.182;2022-09-01T00:11:48;3.83;;;1.50;;
12593;SDS011;6362;50.208;9.182;2022-09-01T00:14:20;3.63;;;1.50;;
12593;SDS011;6362;50.208;9.182;2022-09-01T00:16:48;3.90;;;1.40;;
12593;SDS011;6362;50.208;9.182;2022-09-01T00:19:13;3.88;;;1.30;;
12593;SDS011;6362;50.208;9.182;2022-09-01T00:21:40;4.28;;;1.40;;
12593;SDS011;6362;50.208;9.182;2022-09-01T00:24:07;2.33;;;1.35;;
12593;SDS011;6362;50.208;9.182;2022-09-01T00:26:34;2.72;;;1.40;;
12593;SDS011;6362;50.208;9.182;2022-09-01T00:28:59;4.22;;;1.38;;
12593;SDS011;6362;50.208;9.182;2022-09-01T00:31:25;3.97;;;1.52;;
12593;SDS011;6362;50.208;9.182;2022-09-01T00:33:51;3.47;;;1.40;;
12593;SDS011;6362;50.208;9.182;2022-09-01T00:36:17;2.80;;;1.40;;
12593;SDS011;6362;50.208;9.182;2022-09-01T00:38:43;2.85;;;1.50;;
12593;SDS011;6362;50.208;9.182;2022-09-01T00:41:09;2.45;;;1.45;;
12593;SDS011;6362;50.208;9.182;2022-09-01T00:46:22;3.55;;;1.80;;
12593;SDS011;6362;50.208;9.182;2022-09-01T00:48:55;1.80;;;1.20;;
12593;SDS011;6362;50.208;9.182;2022-09-01T00:51:27;3.30;;;1.50;;
12593;SDS011;6362;50.208;9.182;2022-09-01T00:53:53;4.47;;;1.50;;
12593;SDS011;6362;50.208;9.182;2022-09-01T00:56:20;3.25;;;1.60;;
12593;SDS011;6362;50.208;9.182;2022-09-01T00:58:46;3.50;;;1.42;;
12593;SDS011;6362;50.208;9.182;2022-09-01T01:01:12;4.03;;;1.40;;
12593;SDS011;6362;50.208;9.182;2022-09-01T01:03:38;3.33;;;1.30;;
12593;SDS011;6362;50.208;9.182;2022-09-01T01:06:08;4.38;;;1.73;;
12593;SDS011;6362;50.208;9.182;2022-09-01T01:08:36;4.00;;;1.45;;
12593;SDS011;6362;50.208;9.182;2022-09-01T01:11:05;2.85;;;1.60;;
12593;SDS011;6362;50.208;9.182;2022-09-01T01:13:47;2.22;;;1.40;;
12593;SDS011;6362;50.208;9.182;2022-09-01T01:16:15;3.35;;;1.50;;
12593;SDS011;6362;50.208;9.182;2022-09-01T01:18:41;2.88;;;1.50;;
12593;SDS011;6362;50.208;9.182;2022-09-01T01:21:09;3.05;;;1.40;;
12593;SDS011;6362;50.208;9.182;2022-09-01T01:24:27;3.63;;;1.63;;
12593;SDS011;6362;50.208;9.182;2022-09-01T01:26:56;3.03;;;1.40;;
12593;SDS011;6362;50.208;9.182;2022-09-01T01:29:23;4.90;;;1.60;;
12593;SDS011;6362;50.208;9.182;2022-09-01T01:31:50;2.53;;;1.60;;
12593;SDS011;6362;50.208;9.182;2022-09-01T01:34:17;3.72;;;1.40;;
12593;SDS011;6362;50.208;9.182;2022-09-01T01:36:44;4.07;;;1.60;;
12593;SDS011;6362;50.208;9.182;2022-09-01T01:39:12;3.90;;;1.52;;
12593;SDS011;6362;50.208;9.182;2022-09-01T01:41:43;3.33;;;1.70;;
12593;SDS011;6362;50.208;9.182;2022-09-01T01:44:13;2.75;;;1.48;;
12593;SDS011;6362;50.208;9.182;2022-09-01T01:46:46;3.20;;;1.35;;
12593;SDS011;6362;50.208;9.182;2022-09-01T01:49:18;3.58;;;1.48;;
12593;SDS011;6362;50.208;9.182;2022-09-01T01:51:46;4.03;;;1.42;;
12593;SDS011;6362;50.208;9.182;2022-09-01T01:54:14;4.22;;;1.70;;
12593;SDS011;6362;50.208;9.182;2022-09-01T01:56:42;4.75;;;1.55;;
12593;SDS011;6362;50.208;9.182;2022-09-01T01:59:08;3.63;;;1.40;;
12593;SDS011;6362;50.208;9.182;2022-09-01T02:01:39;4.90;;;1.67;;
12593;SDS011;6362;50.208;9.182;2022-09-01T02:04:07;3.00;;;1.58;;
12593;SDS011;6362;50.208;9.182;2022-09-01T02:06:34;2.85;;;1.45;;
12593;SDS011;6362;50.208;9.182;2022-09-01T02:09:00;3.15;;;1.33;;
12593;SDS011;6362;50.208;9.182;2022-09-01T02:11:27;3.58;;;1.42;;
12593;SDS011;6362;50.208;9.182;2022-09-01T02:13:53;3.05;;;1.40;;
12593;SDS011;6362;50.208;9.182;2022-09-01T02:16:21;3.45;;;1.40;;
12593;SDS011;6362;50.208;9.182;2022-09-01T02:18:48;4.72;;;1.60;;
12593;SDS011;6362;50.208;9.182;2022-09-01T02:21:16;3.30;;;1.50;;
12593;SDS011;6362;50.208;9.182;2022-09-01T02:23:48;3.10;;;1.63;;
12593;SDS011;6362;50.208;9.182;2022-09-01T02:26:24;3.47;;;1.73;;
12593;SDS011;6362;50.208;9.182;2022-09-01T02:28:56;2.80;;;1.50;;
12593;SDS011;6362;50.208;9.182;2022-09-01T02:31:26;3.63;;;1.60;;
12593;SDS011;6362;50.208;9.182;2022-09-01T02:33:52;4.68;;;1.52;;
12593;SDS011;6362;50.208;9.182;2022-09-01T02:36:19;4.97;;;1.65;;
12593;SDS011;6362;50.208;9.182;2022-09-01T02:38:45;2.85;;;1.60;;
12593;SDS011;6362;50.208;9.182;2022-09-01T02:41:13;2.97;;;1.55;;
12593;SDS011;6362;50.208;9.182;2022-09-01T02:43:39;3.50;;;1.70;;
12593;SDS011;6362;50.208;9.182;2022-09-01T02:46:07;3.15;;;1.50;;
12593;SDS011;6362;50.208;9.182;2022-09-01T02:48:34;2.30;;;1.30;;
12593;SDS011;6362;50.208;9.182;2022-09-01T02:51:03;2.28;;;1.30;;
12593;SDS011;6362;50.208;9.182;2022-09-01T02:53:30;5.18;;;1.80;;
12593;SDS011;6362;50.208;9.182;2022-09-01T02:55:59;2.83;;;1.80;;
12593;SDS011;6362;50.208;9.182;2022-09-01T02:58:26;3.67;;;1.67;;
12593;SDS011;6362;50.208;9.182;2022-09-01T03:00:54;5.70;;;1.92;;
12593;SDS011;6362;50.208;9.182;2022-09-01T03:03:21;4.97;;;1.60;;
12593;SDS011;6362;50.208;9.182;2022-09-01T03:05:49;3.25;;;1.50;;
12593;SDS011;6362;50.208;9.182;2022-09-01T03:08:21;3.05;;;1.63;;
12593;SDS011;6362;50.208;9.182;2022-09-01T03:10:48;2.80;;;1.40;;
12593;SDS011;6362;50.208;9.182;2022-09-01T03:13:18;5.72;;;1.58;;
12593;SDS011;6362;50.208;9.182;2022-09-01T03:15:47;5.00;;;1.65;;
12593;SDS011;6362;50.208;9.182;2022-09-01T03:18:14;3.65;;;1.60;;
12593;SDS011;6362;50.208;9.182;2022-09-01T03:20:42;5.07;;;1.60;;
12593;SDS011;6362;50.208;9.182;2022-09-01T03:23:11;2.90;;;1.60;;
12593;SDS011;6362;50.208;9.182;2022-09-01T03:25:40;4.00;;;1.50;;
12593;SDS011;6362;50.208;9.182;2022-09-01T03:28:07;2.42;;;1.40;;
12593;SDS011;6362;50.208;9.182;2022-09-01T03:30:34;5.72;;;1.42;;
12593;SDS011;6362;50.208;9.182;2022-09-01T03:33:04;3.30;;;1.60;;
12593;SDS011;6362;50.208;9.182;2022-09-01T03:35:31;3.05;;;1.50;;
12593;SDS011;6362;50.208;9.182;2022-09-01T03:37:58;3.10;;;1.48;;
12593;SDS011;6362;50.208;9.182;2022-09-01T03:40:29;4.18;;;1.50;;
12593;SDS011;6362;50.208;9.182;2022-09-01T03:42:57;4.18;;;1.50;;
12593;SDS011;6362;50.208;9.182;2022-09-01T03:45:23;2.33;;;1.33;;
12593;SDS011;6362;50.208;9.182;2022-09-01T03:47:50;2.47;;;1.40;;
12593;SDS011;6362;50.208;9.182;2022-09-01T03:50:18;2.55;;;1.40;;
12593;SDS011;6362;50.208;9.182;2022-09-01T03:52:49;3.72;;;1.63;;
12593;SDS011;6362;50.208;9.182;2022-09-01T03:55:17;2.85;;;1.40;;
12593;SDS011;6362;50.208;9.182;2022-09-01T03:57:54;3.13;;;1.58;;
12593;SDS011;6362;50.208;9.182;2022-09-01T04:00:27;2.17;;;1.30;;
12593;SDS011;6362;50.208;9.182;2022-09-01T04:02:55;2.95;;;1.58;;
12593;SDS011;6362;50.208;9.182;2022-09-01T04:05:27;3.28;;;1.60;;
12593;SDS011;6362;50.208;9.182;2022-09-01T04:07:53;3.35;;;1.50;;
12593;SDS011;6362;50.208;9.182;2022-09-01T04:10:20;2.78;;;1.30;;
12593;SDS011;6362;50.208;9.182;2022-09-01T04:12:47;3.65;;;1.50;;
12593;SDS011;6362;50.208;9.182;2022-09-01T04:15:20;3.03;;;1.60;;
12593;SDS011;6362;50.208;9.182;2022-09-01T04:17:45;3.15;;;1.50;;
12593;SDS011;6362;50.208;9.182;2022-09-01T04:20:29;2.45;;;1.50;;
12593;SDS011;6362;50.208;9.182;2022-09-01T04:23:04;6.03;;;1.67;;
12593;SDS011;6362;50.208;9.182;2022-09-01T04:25:35;2.88;;;1.75;;
12593;SDS011;6362;50.208;9.182;2022-09-01T04:28:03;3.60;;;1.70;;
12593;SDS011;6362;50.208;9.182;2022-09-01T04:30:37;3.40;;;1.60;;
12593;SDS011;6362;50.208;9.182;2022-09-01T04:33:05;5.30;;;1.58;;
12593;SDS011;6362;50.208;9.182;2022-09-01T04:35:31;2.85;;;1.65;;
12593;SDS011;6362;50.208;9.182;2022-09-01T04:38:01;3.75;;;1.70;;
12593;SDS011;6362;50.208;9.182;2022-09-01T04:40:26;4.45;;;1.73;;
12593;SDS011;6362;50.208;9.182;2022-09-01T04:42:52;3.78;;;1.42;;
12593;SDS011;6362;50.208;9.182;2022-09-01T04:45:17;3.05;;;1.67;;
12593;SDS011;6362;50.208;9.182;2022-09-01T04:47:49;3.00;;;1.60;;
12593;SDS011;6362;50.208;9.182;2022-09-01T04:50:16;11.13;;;2.15;;
12593;SDS011;6362;50.208;9.182;2022-09-01T04:52:45;3.20;;;1.60;;
12593;SDS011;6362;50.208;9.182;2022-09-01T04:55:12;5.22;;;1.48;;
12593;SDS011;6362;50.208;9.182;2022-09-01T04:57:42;5.10;;;1.50;;
12593;SDS011;6362;50.208;9.182;2022-09-01T05:00:18;2.53;;;1.40;;
12593;SDS011;6362;50.208;9.182;2022-09-01T05:02:55;5.25;;;1.63;;
12593;SDS011;6362;50.208;9.182;2022-09-01T05:05:35;5.35;;;1.60;;
12593;SDS011;6362;50.208;9.182;2022-09-01T05:08:04;5.40;;;1.48;;
12593;SDS011;6362;50.208;9.182;2022-09-01T05:10:30;3.28;;;1.55;;
12593;SDS011;6362;50.208;9.182;2022-09-01T05:12:58;3.67;;;1.40;;
12593;SDS011;6362;50.208;9.182;2022-09-01T05:15:25;2.40;;;1.23;;
12593;SDS011;6362;50.208;9.182;2022-09-01T05:17:51;3.60;;;1.50;;
12593;SDS011;6362;50.208;9.182;2022-09-01T05:20:19;3.40;;;1.52;;
12593;SDS011;6362;50.208;9.182;2022-09-01T05:22:46;2.47;;;1.40;;
12593;SDS011;6362;50.208;9.182;2022-09-01T05:25:11;4.32;;;1.80;;
12593;SDS011;6362;50.208;9.182;2022-09-01T05:27:51;4.68;;;1.90;;
12593;SDS011;6362;50.208;9.182;2022-09-01T05:30:17;3.25;;;1.35;;
12593;SDS011;6362;50.208;9.182;2022-09-01T05:32:45;3.83;;;1.50;;
12593;SDS011;6362;50.208;9.182;2022-09-01T05:35:13;5.78;;;1.55;;
12593;SDS011;6362;50.208;9.182;2022-09-01T05:37:50;2.95;;;1.50;;
12593;SDS011;6362;50.208;9.182;2022-09-01T05:40:15;2.20;;;1.30;;
12593;SDS011;6362;50.208;9.182;2022-09-01T05:42:42;8.30;;;1.92;;
12593;SDS011;6362;50.208;9.182;2022-09-01T05:45:08;3.30;;;1.65;;
12593;SDS011;6362;50.208;9.182;2022-09-01T05:47:37;5.28;;;1.42;;
12593;SDS011;6362;50.208;9.182;2022-09-01T05:50:06;3.53;;;1.30;;
12593;SDS011;6362;50.208;9.182;2022-09-01T05:52:35;3.75;;;1.42;;
12593;SDS011;6362;50.208;9.182;2022-09-01T05:55:03;7.75;;;1.55;;
12593;SDS011;6362;50.208;9.182;2022-09-01T05:57:33;4.72;;;1.55;;
12593;SDS011;6362;50.208;9.182;2022-09-01T05:59:59;4.20;;;1.50;;
12593;SDS011;6362;50.208;9.182;2022-09-01T06:02:31;4.85;;;1.45;;
12593;SDS011;6362;50.208;9.182;2022-09-01T06:04:57;3.05;;;1.40;;
12593;SDS011;6362;50.208;9.182;2022-09-01T06:07:24;3.58;;;1.52;;
12593;SDS011;6362;50.208;9.182;2022-09-01T06:09:52;3.95;;;1.42;;
12593;SDS011;6362;50.208;9.182;2022-09-01T06:12:17;4.13;;;1.33;;
12593;SDS011;6362;50.208;9.182;2022-09-01T06:14:47;4.80;;;1.45;;
12593;SDS011;6362;50.208;9.182;2022-09-01T06:17:15;5.43;;;1.45;;
12593;SDS011;6362;50.208;9.182;2022-09-01T06:19:46;2.38;;;1.20;;
12593;SDS011;6362;50.208;9.182;2022-09-01T06:22:12;4.30;;;1.70;;
12593;SDS011;6362;50.208;9.182;2022-09-01T06:24:38;3.90;;;1.40;;
12593;SDS011;6362;50.208;9.182;2022-09-01T06:27:05;2.80;;;1.40;;
12593;SDS011;6362;50.208;9.182;2022-09-01T06:29:34;3.92;;;1.30;;
12593;SDS011;6362;50.208;9.182;2022-09-01T06:32:03;2.55;;;1.30;;
12593;SDS011;6362;50.208;9.182;2022-09-01T06:34:34;3.80;;;1.73;;
12593;SDS011;6362;50.208;9.182;2022-09-01T06:37:02;3.13;;;1.55;;
12593;SDS011;6362;50.208;9.182;2022-09-01T06:39:28;3.45;;;1.30;;
12593;SDS011;6362;50.208;9.182;2022-09-01T06:41:55;4.00;;;1.50;;
12593;SDS011;6362;50.208;9.182;2022-09-01T06:44:22;2.97;;;1.40;;
12593;SDS011;6362;50.208;9.182;2022-09-01T06:46:49;3.45;;;1.50;;
12593;SDS011;6362;50.208;9.182;2022-09-01T06:49:15;3.13;;;1.48;;
12593;SDS011;6362;50.208;9.182;2022-09-01T06:51:41;3.15;;;1.30;;
12593;SDS011;6362;50.208;9.182;2022-09-01T06:54:06;3.15;;;1.40;;
12593;SDS011;6362;50.208;9.182;2022-09-01T06:56:33;5.07;;;1.55;;
12593;SDS011;6362;50.208;9.182;2022-09-01T06:58:59;3.47;;;1.52;;
12593;SDS011;6362;50.208;9.182;2022-09-01T07:01:28;4.38;;;1.45;;
12593;SDS011;6362;50.208;9.182;2022-09-01T07:03:54;3.13;;;1.40;;
12593;SDS011;6362;50.208;9.182;2022-09-01T07:06:23;2.63;;;1.17;;
12593;SDS011;6362;50.208;9.182;2022-09-01T07:08:55;7.97;;;1.33;;
12593;SDS011;6362;50.208;9.182;2022-09-01T07:11:24;3.42;;;1.30;;
12593;SDS011;6362;50.208;9.182;2022-09-01T07:13:53;4.57;;;1.40;;
12593;SDS011;6362;50.208;9.182;2022-09-01T07:16:22;5.13;;;1.52;;
12593;SDS011;6362;50.208;9.182;2022-09-01T07:18:49;2.65;;;1.15;;
12593;SDS011;6362;50.208;9.182;2022-09-01T07:21:17;4.28;;;1.42;;
12593;SDS011;6362;50.208;9.182;2022-09-01T07:23:43;4.47;;;1.30;;
12593;SDS011;6362;50.208;9.182;2022-09-01T07:26:10;7.45;;;1.38;;
12593;SDS011;6362;50.208;9.182;2022-09-01T07:28:42;3.28;;;1.50;;
12593;SDS011;6362;50.208;9.182;2022-09-01T07:31:15;2.13;;;1.02;;
12593;SDS011;6362;50.208;9.182;2022-09-01T07:33:44;6.70;;;1.48;;
12593;SDS011;6362;50.208;9.182;2022-09-01T07:36:16;3.55;;;1.30;;
12593;SDS011;6362;50.208;9.182;2022-09-01T07:38:44;3.47;;;1.42;;
12593;SDS011;6362;50.208;9.182;2022-09-01T07:41:11;3.33;;;1.10;;
12593;SDS011;6362;50.208;9.182;2022-09-01T07:43:37;3.35;;;1.60;;
12593;SDS011;6362;50.208;9.182;2022-09-01T07:46:06;2.20;;;1.20;;
12593;SDS011;6362;50.208;9.182;2022-09-01T07:48:31;3.28;;;1.20;;
12593;SDS011;6362;50.208;9.182;2022-09-01T07:50:57;5.57;;;1.52;;
12593;SDS011;6362;50.208;9.182;2022-09-01T07:53:24;5.90;;;1.35;;
12593;SDS011;6362;50.208;9.182;2022-09-01T07:55:52;1.95;;;1.05;;
12593;SDS011;6362;50.208;9.182;2022-09-01T07:58:20;2.00;;;1.10;;
12593;SDS011;6362;50.208;9.182;2022-09-01T08:00:48;2.72;;;1.40;;
12593;SDS011;6362;50.208;9.182;2022-09-01T08:03:14;3.95;;;1.10;;
12593;SDS011;6362;50.208;9.182;2022-09-01T08:05:42;2.53;;;1.20;;
12593;SDS011;6362;50.208;9.182;2022-09-01T08:08:08;2.63;;;1.27;;
12593;SDS011;6362;50.208;9.182;2022-09-01T08:10:37;2.25;;;1.20;;
12593;SDS011;6362;50.208;9.182;2022-09-01T08:13:07;4.45;;;1.30;;
12593;SDS011;6362;50.208;9.182;2022-09-01T08:15:33;3.65;;;1.23;;
12593;SDS011;6362;50.208;9.182;2022-09-01T08:17:59;2.42;;;1.20;;
12593;SDS011;6362;50.208;9.182;2022-09-01T08:20:24;3.33;;;1.10;;
12593;SDS011;6362;50.208;9.182;2022-09-01T08:22:50;2.55;;;1.20;;
12593;SDS011;6362;50.208;9.182;2022-09-01T08:25:16;2.10;;;1.17;;
12593;SDS011;6362;50.208;9.182;2022-09-01T08:27:42;3.35;;;1.30;;
12593;SDS011;6362;50.208;9.182;2022-09-01T08:30:08;4.78;;;1.15;;
12593;SDS011;6362;50.208;9.182;2022-09-01T08:32:37;4.07;;;1.27;;
12593;SDS011;6362;50.208;9.182;2022-09-01T08:35:06;2.95;;;1.10;;
12593;SDS011;6362;50.208;9.182;2022-09-01T08:37:36;2.20;;;1.25;;
12593;SDS011;6362;50.208;9.182;2022-09-01T08:40:03;1.48;;;1.00;;
12593;SDS011;6362;50.208;9.182;2022-09-01T08:45:12;2.40;;;1.00;;
12593;SDS011;6362;50.208;9.182;2022-09-01T08:47:45;4.03;;;1.00;;
12593;SDS011;6362;50.208;9.182;2022-09-01T08:50:11;2.47;;;1.20;;
12593;SDS011;6362;50.208;9.182;2022-09-01T08:52:39;2.53;;;1.10;;
12593;SDS011;6362;50.208;9.182;2022-09-01T08:55:13;2.28;;;0.93;;
12593;SDS011;6362;50.208;9.182;2022-09-01T08:57:46;2.17;;;1.10;;
12593;SDS011;6362;50.208;9.182;2022-09-01T09:00:16;4.55;;;1.10;;
12593;SDS011;6362;50.208;9.182;2022-09-01T09:02:52;5.47;;;1.00;;
12593;SDS011;6362;50.208;9.182;2022-09-01T09:10:41;4.63;;;0.90;;
12593;SDS011;6362;50.208;9.182;2022-09-01T09:18:48;3.83;;;1.00;;
12593;SDS011;6362;50.208;9.182;2022-09-01T09:21:28;5.25;;;1.10;;
12593;SDS011;6362;50.208;9.182;2022-09-01T09:23:59;4.22;;;1.10;;
12593;SDS011;6362;50.208;9.182;2022-09-01T09:26:50;1.77;;;0.90;;
12593;SDS011;6362;50.208;9.182;2022-09-01T09:29:17;3.28;;;0.95;;
12593;SDS011;6362;50.208;9.182;2022-09-01T09:31:44;2.38;;;1.00;;
12593;SDS011;6362;50.208;9.182;2022-09-01T09:37:21;2.47;;;0.90;;
12593;SDS011;6362;50.208;9.182;2022-09-01T09:47:54;2.58;;;0.90;;
12593;SDS011;6362;50.208;9.182;2022-09-01T09:50:22;4.65;;;0.80;;
12593;SDS011;6362;50.208;9.182;2022-09-01T09:53:08;1.63;;;0.80;;
12593;SDS011;6362;50.208;9.182;2022-09-01T09:58:43;4.03;;;1.00;;
12593;SDS011;6362;50.208;9.182;2022-09-01T10:03:53;4.25;;;0.88;;
12593;SDS011;6362;50.208;9.182;2022-09-01T10:06:39;2.88;;;0.80;;
12593;SDS011;6362;50.208;9.182;2022-09-01T10:09:14;2.00;;;0.80;;
12593;SDS011;6362;50.208;9.182;2022-09-01T10:11:57;2.97;;;0.85;;
12593;SDS011;6362;50.208;9.182;2022-09-01T10:14:28;2.25;;;0.98;;
12593;SDS011;6362;50.208;9.182;2022-09-01T10:19:38;1.15;;;0.80;;
12593;SDS011;6362;50.208;9.182;2022-09-01T10:22:08;1.75;;;0.73;;
12593;SDS011;6362;50.208;9.182;2022-09-01T10:24:35;1.83;;;0.88;;
12593;SDS011;6362;50.208;9.182;2022-09-01T10:27:04;2.25;;;0.80;;
12593;SDS011;6362;50.208;9.182;2022-09-01T10:32:28;2.63;;;1.10;;
12593;SDS011;6362;50.208;9.182;2022-09-01T10:35:01;3.53;;;0.98;;
12593;SDS011;6362;50.208;9.182;2022-09-01T10:37:28;1.90;;;1.00;;
12593;SDS011;6362;50.208;9.182;2022-09-01T10:40:12;6.15;;;1.05;;
12593;SDS011;6362;50.208;9.182;2022-09-01T10:42:41;3.90;;;1.08;;
12593;SDS011;6362;50.208;9.182;2022-09-01T10:50:49;2.38;;;0.93;;
12593;SDS011;6362;50.208;9.182;2022-09-01T10:56:05;1.67;;;0.90;;
12593;SDS011;6362;50.208;9.182;2022-09-01T11:01:14;2.00;;;0.90;;
12593;SDS011;6362;50.208;9.182;2022-09-01T11:03:53;3.50;;;1.13;;
12593;SDS011;6362;50.208;9.182;2022-09-01T11:07:20;2.08;;;0.95;;
12593;SDS011;6362;50.208;9.182;2022-09-01T11:09:25;3.17;;;0.90;;
12593;SDS011;6362;50.208;9.182;2022-09-01T11:12:04;3.67;;;1.10;;
12593;SDS011;6362;50.208;9.182;2022-09-01T11:14:34;2.38;;;1.00;;
12593;SDS011;6362;50.208;9.182;2022-09-01T11:17:22;2.28;;;0.90;;
12593;SDS011;6362;50.208;9.182;2022-09-01T11:20:02;4.10;;;0.93;;
12593;SDS011;6362;50.208;9.182;2022-09-01T11:28:06;1.70;;;1.10;;
12593;SDS011;6362;50.208;9.182;2022-09-01T11:30:44;3.87;;;0.90;;
12593;SDS011;6362;50.208;9.182;2022-09-01T11:33:40;2.95;;;1.08;;
12593;SDS011;6362;50.208;9.182;2022-09-01T11:36:26;1.67;;;0.75;;
12593;SDS011;6362;50.208;9.182;2022-09-01T11:39:03;2.42;;;1.00;;
12593;SDS011;6362;50.208;9.182;2022-09-01T11:41:43;1.60;;;0.80;;
12593;SDS011;6362;50.208;9.182;2022-09-01T11:44:26;6.32;;;1.00;;
12593;SDS011;6362;50.208;9.182;2022-09-01T11:46:58;2.38;;;1.00;;
12593;SDS011;6362;50.208;9.182;2022-09-01T11:51:55;2.75;;;0.98;;
12593;SDS011;6362;50.208;9.182;2022-09-01T11:54:22;3.30;;;1.10;;
12593;SDS011;6362;50.208;9.182;2022-09-01T11:56:48;4.18;;;1.20;;
12593;SDS011;6362;50.208;9.182;2022-09-01T11:59:14;3.25;;;0.90;;
12593;SDS011;6362;50.208;9.182;2022-09-01T12:01:56;1.50;;;0.90;;
12593;SDS011;6362;50.208;9.182;2022-09-01T12:04:23;3.33;;;1.13;;
12593;SDS011;6362;50.208;9.182;2022-09-01T12:06:58;1.48;;;0.80;;
12593;SDS011;6362;50.208;9.182;2022-09-01T12:09:33;1.73;;;0.90;;
12593;SDS011;6362;50.208;9.182;2022-09-01T12:12:05;2.33;;;1.00;;
12593;SDS011;6362;50.208;9.182;2022-09-01T12:14:31;3.70;;;1.08;;
12593;SDS011;6362;50.208;9.182;2022-09-01T12:16:59;2.65;;;1.08;;
12593;SDS011;6362;50.208;9.182;2022-09-01T12:19:30;3.13;;;1.00;;
12593;SDS011;6362;50.208;9.182;2022-09-01T12:24:26;5.13;;;0.93;;
12593;SDS011;6362;50.208;9.182;2022-09-01T12:26:53;2.47;;;0.90;;
12593;SDS011;6362;50.208;9.182;2022-09-01T12:29:21;4.13;;;0.95;;
12593;SDS011;6362;50.208;9.182;2022-09-01T12:31:47;1.60;;;0.90;;
12593;SDS011;6362;50.208;9.182;2022-09-01T12:34:25;2.38;;;0.82;;
12593;SDS011;6362;50.208;9.182;2022-09-01T12:39:41;1.40;;;0.90;;
12593;SDS011;6362;50.208;9.182;2022-09-01T12:42:11;2.30;;;1.00;;
12593;SDS011;6362;50.208;9.182;2022-09-01T12:44:50;1.98;;;0.90;;
12593;SDS011;6362;50.208;9.182;2022-09-01T12:49:58;5.55;;;1.00;;
12593;SDS011;6362;50.208;9.182;2022-09-01T12:52:27;2.75;;;1.10;;
12593;SDS011;6362;50.208;9.182;2022-09-01T12:57:29;3.03;;;0.90;;
12593;SDS011;6362;50.208;9.182;2022-09-01T13:05:31;2.13;;;1.10;;
12593;SDS011;6362;50.208;9.182;2022-09-01T13:08:00;4.53;;;1.00;;
12593;SDS011;6362;50.208;9.182;2022-09-01T13:10:38;3.05;;;1.10;;
12593;SDS011;6362;50.208;9.182;2022-09-01T13:13:15;3.75;;;1.13;;
12593;SDS011;6362;50.208;9.182;2022-09-01T13:15:43;3.05;;;1.20;;
12593;SDS011;6362;50.208;9.182;2022-09-01T13:18:15;2.25;;;1.00;;
12593;SDS011;6362;50.208;9.182;2022-09-01T13:20:42;1.80;;;0.90;;
12593;SDS011;6362;50.208;9.182;2022-09-01T13:23:08;3.60;;;1.00;;
12593;SDS011;6362;50.208;9.182;2022-09-01T13:25:34;1.63;;;0.90;;
12593;SDS011;6362;50.208;9.182;2022-09-01T13:27:59;2.47;;;1.02;;
12593;SDS011;6362;50.208;9.182;2022-09-01T13:30:26;2.08;;;0.90;;
12593;SDS011;6362;50.208;9.182;2022-09-01T13:32:52;1.90;;;0.90;;
12593;SDS011;6362;50.208;9.182;2022-09-01T13:35:19;4.03;;;1.10;;
12593;SDS011;6362;50.208;9.182;2022-09-01T13:37:46;1.73;;;1.00;;
12593;SDS011;6362;50.208;9.182;2022-09-01T13:40:13;2.28;;;1.17;;
12593;SDS011;6362;50.208;9.182;2022-09-01T13:42:41;3.53;;;1.02;;
12593;SDS011;6362;50.208;9.182;2022-09-01T13:45:08;3.15;;;1.10;;
12593;SDS011;6362;50.208;9.182;2022-09-01T13:47:37;3.03;;;1.15;;
12593;SDS011;6362;50.208;9.182;2022-09-01T13:50:03;1.98;;;0.95;;
12593;SDS011;6362;50.208;9.182;2022-09-01T13:52:29;1.98;;;1.10;;
12593;SDS011;6362;50.208;9.182;2022-09-01T13:54:54;2.13;;;1.10;;
12593;SDS011;6362;50.208;9.182;2022-09-01T13:57:20;1.90;;;1.10;;
12593;SDS011;6362;50.208;9.182;2022-09-01T13:59:45;3.22;;;1.05;;
12593;SDS011;6362;50.208;9.182;2022-09-01T14:02:11;4.45;;;1.20;;
12593;SDS011;6362;50.208;9.182;2022-09-01T14:04:36;2.45;;;0.90;;
12593;SDS011;6362;50.208;9.182;2022-09-01T14:07:02;2.25;;;0.93;;
12593;SDS011;6362;50.208;9.182;2022-09-01T14:09:28;2.63;;;1.00;;
12593;SDS011;6362;50.208;9.182;2022-09-01T14:11:53;2.72;;;1.00;;
12593;SDS011;6362;50.208;9.182;2022-09-01T14:14:20;2.47;;;1.08;;
12593;SDS011;6362;50.208;9.182;2022-09-01T14:16:45;4.93;;;1.00;;
12593;SDS011;6362;50.208;9.182;2022-09-01T14:19:11;5.00;;;1.08;;
12593;SDS011;6362;50.208;9.182;2022-09-01T14:21:37;4.47;;;1.00;;
12593;SDS011;6362;50.208;9.182;2022-09-01T14:24:03;2.90;;;1.20;;
12593;SDS011;6362;50.208;9.182;2022-09-01T14:26:29;3.05;;;1.08;;
12593;SDS011;6362;50.208;9.182;2022-09-01T14:28:55;2.53;;;1.10;;
12593;SDS011;6362;50.208;9.182;2022-09-01T14:31:22;2.35;;;0.90;;
12593;SDS011;6362;50.208;9.182;2022-09-01T14:33:47;1.65;;;0.85;;
12593;SDS011;6362;50.208;9.182;2022-09-01T14:36:18;2.20;;;1.00;;
12593;SDS011;6362;50.208;9.182;2022-09-01T14:41:13;1.85;;;1.00;;
12593;SDS011;6362;50.208;9.182;2022-09-01T14:43:39;3.47;;;0.90;;
12593;SDS011;6362;50.208;9.182;2022-09-01T14:46:07;1.80;;;0.80;;
12593;SDS011;6362;50.208;9.182;2022-09-01T14:48:35;2.15;;;0.85;;
12593;SDS011;6362;50.208;9.182;2022-09-01T14:51:01;2.95;;;0.80;;
12593;SDS011;6362;50.208;9.182;2022-09-01T14:53:28;7.30;;;0.90;;
12593;SDS011;6362;50.208;9.182;2022-09-01T14:55:55;2.53;;;0.80;;
12593;SDS011;6362;50.208;9.182;2022-09-01T14:58:22;1.85;;;0.70;;
12593;SDS011;6362;50.208;9.182;2022-09-01T15:00:48;3.42;;;0.90;;
12593;SDS011;6362;50.208;9.182;2022-09-01T15:03:14;1.45;;;0.70;;
12593;SDS011;6362;50.208;9.182;2022-09-01T15:05:39;1.30;;;0.82;;
12593;SDS011;6362;50.208;9.182;2022-09-01T15:08:05;1.10;;;0.75;;
12593;SDS011;6362;50.208;9.182;2022-09-01T15:10:31;1.50;;;0.80;;
12593;SDS011;6362;50.208;9.182;2022-09-01T15:12:59;1.50;;;0.80;;
12593;SDS011;6362;50.208;9.182;2022-09-01T15:15:25;2.25;;;0.80;;
12593;SDS011;6362;50.208;9.182;2022-09-01T15:17:52;3.92;;;0.90;;
12593;SDS011;6362;50.208;9.182;2022-09-01T15:20:18;2.25;;;1.13;;
12593;SDS011;6362;50.208;9.182;2022-09-01T15:23:02;1.20;;;0.80;;
12593;SDS011;6362;50.208;9.182;2022-09-01T15:25:28;3.33;;;0.90;;
12593;SDS011;6362;50.208;9.182;2022-09-01T15:27:54;3.90;;;0.70;;
12593;SDS011;6362;50.208;9.182;2022-09-01T15:30:20;2.60;;;0.90;;
12593;SDS011;6362;50.208;9.182;2022-09-01T15:32:46;1.52;;;0.77;;
12593;SDS011;6362;50.208;9.182;2022-09-01T15:35:14;1.58;;;0.98;;
12593;SDS011;6362;50.208;9.182;2022-09-01T15:37:40;1.92;;;0.85;;
12593;SDS011;6362;50.208;9.182;2022-09-01T15:40:07;3.22;;;0.90;;
12593;SDS011;6362;50.208;9.182;2022-09-01T15:42:33;1.75;;;0.80;;
12593;SDS011;6362;50.208;9.182;2022-09-01T15:45:01;1.67;;;0.85;;
12593;SDS011;6362;50.208;9.182;2022-09-01T15:47:29;3.25;;;0.80;;
12593;SDS011;6362;50.208;9.182;2022-09-01T15:49:54;2.08;;;1.00;;
12593;SDS011;6362;50.208;9.182;2022-09-01T15:52:20;2.60;;;0.80;;
12593;SDS011;6362;50.208;9.182;2022-09-01T15:54:45;3.75;;;0.93;;
12593;SDS011;6362;50.208;9.182;2022-09-01T15:57:10;1.80;;;1.00;;
12593;SDS011;6362;50.208;9.182;2022-09-01T15:59:36;2.67;;;0.75;;
12593;SDS011;6362;50.208;9.182;2022-09-01T16:02:04;2.13;;;0.90;;
12593;SDS011;6362;50.208;9.182;2022-09-01T16:04:31;2.25;;;0.90;;
12593;SDS011;6362;50.208;9.182;2022-09-01T16:06:57;1.30;;;0.80;;
12593;SDS011;6362;50.208;9.182;2022-09-01T16:09:23;2.30;;;0.88;;
12593;SDS011;6362;50.208;9.182;2022-09-01T16:11:50;2.13;;;0.80;;
12593;SDS011;6362;50.208;9.182;2022-09-01T16:14:15;1.65;;;1.10;;
12593;SDS011;6362;50.208;9.182;2022-09-01T16:19:46;1.17;;;0.80;;
12593;SDS011;6362;50.208;9.182;2022-09-01T16:24:58;2.88;;;0.98;;
12593;SDS011;6362;50.208;9.182;2022-09-01T16:27:30;1.50;;;0.85;;
12593;SDS011;6362;50.208;9.182;2022-09-01T16:30:05;1.90;;;0.90;;
12593;SDS011;6362;50.208;9.182;2022-09-01T16:32:33;1.48;;;0.80;;
12593;SDS011;6362;50.208;9.182;2022-09-01T16:34:59;2.00;;;0.93;;